createdAt,value
2018-06-10T00:01:27.466Z,16.37
2018-06-10T00:03:54.525Z,14.80
2018-06-10T00:06:21.565Z,15.73
2018-06-10T00:08:48.652Z,16.50
2018-06-10T00:11:15.699Z,17.50
2018-06-10T00:13:42.699Z,19.73
2018-06-10T00:16:09.714Z,22.40
2018-06-10T00:18:36.758Z,22.20
2018-06-10T00:21:03.768Z,22.23
2018-06-10T00:23:30.784Z,21.10
2018-06-10T00:25:57.848Z,20.83
2018-06-10T00:28:30.504Z,22.70
2018-06-10T00:30:57.627Z,22.70
2018-06-10T00:33:24.680Z,22.17
2018-06-10T00:35:51.757Z,22.23
2018-06-10T00:38:18.809Z,20.57
2018-06-10T00:40:45.881Z,21.97
2018-06-10T00:43:12.901Z,23.90
2018-06-10T00:45:39.910Z,23.67
2018-06-10T00:48:06.951Z,22.60
2018-06-10T00:50:33.952Z,24.03
2018-06-10T00:53:00.981Z,24.20
2018-06-10T00:55:28.035Z,23.00
2018-06-10T00:57:55.053Z,24.53
2018-06-10T01:00:22.116Z,25.30
2018-06-10T01:02:49.088Z,25.67
2018-06-10T01:05:16.080Z,23.13
2018-06-10T01:07:43.160Z,23.80
2018-06-10T01:10:10.322Z,23.77
2018-06-10T01:12:37.352Z,23.03
2018-06-10T01:15:04.400Z,23.33
2018-06-10T01:17:31.368Z,22.43
2018-06-10T01:19:58.411Z,22.53
2018-06-10T01:22:25.474Z,24.23
2018-06-10T01:24:52.568Z,22.73
2018-06-10T01:27:19.549Z,23.87
2018-06-10T01:29:46.545Z,23.60
2018-06-10T01:32:13.644Z,22.30
2018-06-10T01:34:40.645Z,24.90
2018-06-10T01:37:07.774Z,24.50
2018-06-10T01:39:34.832Z,25.03
2018-06-10T01:42:01.834Z,25.77
2018-06-10T01:44:28.897Z,25.73
2018-06-10T01:46:56.015Z,23.90
2018-06-10T01:49:23.037Z,23.03
2018-06-10T01:51:50.048Z,22.93
2018-06-10T01:54:17.154Z,22.20
2018-06-10T01:56:44.192Z,22.73
2018-06-10T01:59:11.256Z,25.00
2018-06-10T02:01:38.276Z,24.27
2018-06-10T02:04:05.315Z,24.80
2018-06-10T02:06:32.336Z,24.03
2018-06-10T02:08:59.383Z,22.67
2018-06-10T02:11:26.395Z,24.00
2018-06-10T02:16:27.178Z,26.27
2018-06-10T02:18:54.194Z,29.10
2018-06-10T02:21:21.236Z,24.60
2018-06-10T02:23:48.272Z,28.93
2018-06-10T02:26:15.328Z,31.40
2018-06-10T02:28:42.313Z,30.50
2018-06-10T02:31:09.312Z,32.77
2018-06-10T02:33:36.411Z,30.53
2018-06-10T02:36:03.439Z,32.20
2018-06-10T02:38:30.436Z,30.90
2018-06-10T02:40:57.510Z,30.90
2018-06-10T02:43:24.559Z,32.13
2018-06-10T02:45:51.579Z,30.73
2018-06-10T02:48:18.569Z,29.23
2018-06-10T02:50:45.597Z,27.93
2018-06-10T02:53:12.625Z,26.00
2018-06-10T02:55:39.659Z,25.17
2018-06-10T02:58:06.754Z,28.93
2018-06-10T03:00:33.825Z,28.63
2018-06-10T03:03:00.913Z,29.07
2018-06-10T03:05:27.989Z,28.33
2018-06-10T03:07:55.060Z,24.37
2018-06-10T03:10:22.089Z,28.40
2018-06-10T03:12:49.116Z,28.63
2018-06-10T03:15:16.157Z,29.00
2018-06-10T03:17:43.149Z,27.07
2018-06-10T03:20:10.164Z,27.17
2018-06-10T03:22:37.292Z,29.97
2018-06-10T03:25:04.601Z,27.67
2018-06-10T03:27:31.595Z,29.33
2018-06-10T03:29:58.623Z,26.70
2018-06-10T03:32:25.696Z,27.27
2018-06-10T03:34:52.733Z,29.80
2018-06-10T03:37:19.760Z,28.30
2018-06-10T03:39:46.826Z,28.60
2018-06-10T03:42:13.836Z,28.23
2018-06-10T03:44:40.956Z,29.63
2018-06-10T03:47:08.020Z,28.17
2018-06-10T03:49:35.029Z,28.47
2018-06-10T03:52:01.995Z,29.63
2018-06-10T03:54:29.019Z,28.60
2018-06-10T03:56:56.060Z,29.30
2018-06-10T03:59:23.054Z,33.03
2018-06-10T04:01:50.040Z,28.70
2018-06-10T04:04:17.041Z,31.20
2018-06-10T04:06:44.142Z,30.63
2018-06-10T04:09:11.153Z,33.30
2018-06-10T04:11:38.159Z,30.37
2018-06-10T04:14:05.224Z,32.30
2018-06-10T04:16:32.222Z,32.77
2018-06-10T04:18:59.299Z,32.33
2018-06-10T04:21:26.353Z,32.03
2018-06-10T04:23:54.190Z,33.27
2018-06-10T04:26:21.188Z,29.83
2018-06-10T04:28:48.255Z,30.10
2018-06-10T04:31:15.275Z,32.43
2018-06-10T04:33:42.323Z,30.83
2018-06-10T04:36:09.417Z,29.97
2018-06-10T04:38:36.469Z,30.57
2018-06-10T04:41:03.460Z,31.23
2018-06-10T04:43:30.459Z,29.73
2018-06-10T04:45:57.521Z,29.10
2018-06-10T04:48:24.566Z,30.30
2018-06-10T04:50:51.623Z,28.87
2018-06-10T04:53:18.698Z,29.50
2018-06-10T04:55:45.755Z,28.57
2018-06-10T04:58:12.848Z,28.00
2018-06-10T05:00:39.908Z,26.87
2018-06-10T05:03:06.972Z,30.93
2018-06-10T05:05:34.082Z,28.90
2018-06-10T05:08:01.144Z,26.47
2018-06-10T05:10:28.144Z,28.83
2018-06-10T05:12:55.132Z,29.00
2018-06-10T05:15:22.182Z,27.57
2018-06-10T05:17:49.358Z,27.50
2018-06-10T05:20:16.385Z,28.60
2018-06-10T05:22:43.408Z,27.47
2018-06-10T05:25:10.459Z,30.00
2018-06-10T05:27:37.481Z,28.80
2018-06-10T05:30:04.462Z,29.43
2018-06-10T05:32:31.496Z,30.37
2018-06-10T05:34:58.484Z,30.57
2018-06-10T05:37:25.542Z,30.07
2018-06-10T05:39:52.614Z,34.23
2018-06-10T05:42:19.933Z,32.60
2018-06-10T05:44:46.948Z,32.83
2018-06-10T05:47:14.010Z,31.67
2018-06-10T05:49:41.053Z,33.20
2018-06-10T05:52:08.018Z,30.80
2018-06-10T05:54:35.096Z,32.20
2018-06-10T05:57:02.101Z,30.77
2018-06-10T05:59:29.120Z,30.17
2018-06-10T06:01:56.196Z,29.00
2018-06-10T06:04:23.196Z,30.57
2018-06-10T06:06:50.190Z,33.20
2018-06-10T06:09:17.296Z,31.33
2018-06-10T06:11:44.336Z,26.83
2018-06-10T06:14:11.336Z,29.70
2018-06-10T06:16:38.417Z,28.10
2018-06-10T06:19:05.420Z,30.17
2018-06-10T06:21:32.507Z,31.33
2018-06-10T06:23:59.605Z,30.50
2018-06-10T06:26:26.635Z,30.97
2018-06-10T06:28:53.731Z,34.30
2018-06-10T06:31:20.849Z,32.47
2018-06-10T06:33:47.868Z,35.43
2018-06-10T06:36:14.873Z,31.60
2018-06-10T06:55:26.688Z,33.73
2018-06-10T06:57:53.776Z,32.30
2018-06-10T07:00:21.209Z,32.87
2018-06-10T07:02:48.340Z,32.23
2018-06-10T07:05:15.459Z,33.43
2018-06-10T07:07:42.785Z,34.70
2018-06-10T07:10:09.833Z,33.83
2018-06-10T07:12:37.926Z,35.20
2018-06-10T07:15:05.704Z,35.40
2018-06-10T07:17:32.943Z,37.50
2018-06-10T07:20:00.945Z,35.77
2018-06-10T07:22:27.996Z,32.27
2018-06-10T07:24:55.700Z,36.40
2018-06-10T07:27:22.708Z,33.63
2018-06-10T07:29:50.275Z,32.37
2018-06-10T07:32:17.299Z,30.33
2018-06-10T07:34:44.368Z,33.17
2018-06-10T07:37:11.799Z,31.23
2018-06-10T07:39:38.801Z,30.13
2018-06-10T07:42:05.853Z,35.83
2018-06-10T07:44:32.965Z,31.77
2018-06-10T07:47:00.057Z,33.07
2018-06-10T07:49:27.075Z,30.53
2018-06-10T07:51:54.196Z,30.60
2018-06-10T07:54:21.229Z,27.70
2018-06-10T07:56:48.732Z,29.23
2018-06-10T07:59:15.885Z,30.37
2018-06-10T08:01:43.128Z,28.90
2018-06-10T08:04:10.184Z,27.13
2018-06-10T08:06:37.265Z,30.90
2018-06-10T08:09:06.183Z,30.80
2018-06-10T08:11:33.275Z,29.60
2018-06-10T08:14:00.381Z,27.30
2018-06-10T08:16:27.501Z,30.30
2018-06-10T08:18:54.569Z,29.53
2018-06-10T08:21:21.694Z,31.10
2018-06-10T08:23:48.798Z,30.07
2018-06-10T08:26:15.843Z,29.80
2018-06-10T08:28:42.920Z,28.57
2018-06-10T08:31:10.028Z,27.57
2018-06-10T08:33:37.177Z,26.87
2018-06-10T08:36:04.351Z,29.67
2018-06-10T08:38:31.576Z,26.23
2018-06-10T08:40:58.903Z,28.43
2018-06-10T08:43:26.008Z,26.00
2018-06-10T08:45:53.141Z,26.23
2018-06-10T08:48:20.365Z,27.30
2018-06-10T09:07:33.217Z,21.83
2018-06-10T09:10:00.466Z,24.17
2018-06-10T09:12:27.829Z,22.00
2018-06-10T09:14:55.993Z,19.30
2018-06-10T09:17:23.910Z,19.17
2018-06-10T09:19:51.569Z,20.67
2018-06-10T09:22:19.271Z,20.20
2018-06-10T09:24:48.262Z,16.17
2018-06-10T09:27:16.249Z,17.30
2018-06-10T09:29:43.620Z,18.13
2018-06-10T09:32:11.298Z,16.90
2018-06-10T09:34:39.224Z,19.03
2018-06-10T09:37:06.576Z,20.03
2018-06-10T09:39:35.309Z,17.67
2018-06-10T09:42:02.653Z,17.93
2018-06-10T09:44:29.792Z,22.87
2018-06-10T09:46:57.927Z,17.80
2018-06-10T09:49:25.020Z,21.43
2018-06-10T09:51:52.552Z,21.10
2018-06-10T09:54:20.320Z,17.83
2018-06-10T09:56:47.654Z,21.37
2018-06-10T09:59:15.034Z,22.00
2018-06-10T10:01:42.515Z,20.73
2018-06-10T10:04:10.139Z,19.00
2018-06-10T10:06:37.312Z,19.87
2018-06-10T10:09:06.491Z,18.70
2018-06-10T10:11:33.726Z,19.57
2018-06-10T10:14:00.854Z,20.20
2018-06-10T10:16:28.053Z,21.87
2018-06-10T10:18:55.655Z,19.60
2018-06-10T10:21:22.810Z,26.43
2018-06-10T10:23:50.102Z,19.30
2018-06-10T10:26:17.532Z,36.00
2018-06-10T10:28:45.013Z,27.37
2018-06-10T10:31:13.049Z,22.00
2018-06-10T10:33:40.929Z,19.83
2018-06-10T10:36:10.419Z,21.47
2018-06-10T10:38:37.827Z,24.80
2018-06-10T10:41:05.853Z,19.50
2018-06-10T10:43:32.973Z,20.63
2018-06-10T10:46:00.064Z,20.57
2018-06-10T10:48:27.612Z,18.20
2018-06-10T10:50:56.685Z,18.43
2018-06-10T10:53:24.170Z,18.10
2018-06-10T10:55:52.092Z,18.67
2018-06-10T10:58:20.656Z,18.17
2018-06-10T11:00:50.044Z,19.07
2018-06-10T11:03:17.883Z,17.63
2018-06-10T11:05:45.081Z,18.43
2018-06-10T11:08:12.344Z,17.00
2018-06-10T11:10:39.462Z,15.47
2018-06-10T11:13:06.653Z,16.83
2018-06-10T11:15:33.837Z,15.33
2018-06-10T11:18:01.048Z,15.83
2018-06-10T11:20:28.311Z,15.73
2018-06-10T11:22:55.568Z,16.60
2018-06-10T11:25:22.740Z,16.73
2018-06-10T11:27:50.122Z,16.53
2018-06-10T11:30:17.284Z,18.00
2018-06-10T11:32:44.394Z,16.87
2018-06-10T11:35:14.119Z,17.43
2018-06-10T11:37:42.713Z,17.33
2018-06-10T11:40:09.946Z,16.93
2018-06-10T11:42:37.844Z,16.90
2018-06-10T11:45:05.703Z,16.33
2018-06-10T11:47:32.918Z,16.60
2018-06-10T11:50:00.260Z,16.63
2018-06-10T11:52:27.632Z,16.23
2018-06-10T11:54:54.869Z,15.03
2018-06-10T11:57:22.080Z,15.40
2018-06-10T11:59:49.400Z,16.63
2018-06-10T12:02:16.952Z,16.20
2018-06-10T12:04:44.478Z,16.70
2018-06-10T12:07:12.169Z,14.43
2018-06-10T12:09:40.140Z,14.57
2018-06-10T12:12:07.750Z,14.73
2018-06-10T12:14:34.989Z,18.80
2018-06-10T12:17:02.514Z,14.53
2018-06-10T12:19:31.045Z,14.43
2018-06-10T12:21:59.162Z,15.10
2018-06-10T12:24:27.632Z,14.70
2018-06-10T12:26:55.097Z,15.87
2018-06-10T12:29:22.610Z,14.97
2018-06-10T12:31:51.916Z,15.57
2018-06-10T12:34:19.280Z,15.53
2018-06-10T12:36:46.746Z,15.10
2018-06-10T12:39:13.981Z,14.90
2018-06-10T12:41:41.949Z,15.17
2018-06-10T12:44:09.155Z,14.83
2018-06-10T12:46:36.357Z,15.20
2018-06-10T12:49:04.060Z,14.83
2018-06-10T12:51:31.255Z,14.80
2018-06-10T12:53:59.215Z,14.00
2018-06-10T12:56:26.448Z,14.33
2018-06-10T12:58:55.163Z,14.13
2018-06-10T13:01:23.426Z,14.80
2018-06-10T13:03:50.906Z,13.50
2018-06-10T13:06:18.271Z,13.37
2018-06-10T13:08:46.164Z,13.80
2018-06-10T13:11:13.678Z,13.93
2018-06-10T13:13:40.897Z,13.90
2018-06-10T13:16:08.122Z,14.90
2018-06-10T13:18:35.320Z,14.70
2018-06-10T13:21:03.300Z,14.47
2018-06-10T13:23:31.293Z,13.97
2018-06-10T13:25:58.625Z,13.50
2018-06-10T13:28:26.425Z,11.90
2018-06-10T13:30:53.735Z,12.00
2018-06-10T13:33:20.961Z,10.47
2018-06-10T13:35:48.193Z,10.80
2018-06-10T13:38:15.433Z,10.97
2018-06-10T13:40:42.837Z,11.13
2018-06-10T13:43:10.169Z,11.90
2018-06-10T13:45:37.449Z,11.30
2018-06-10T13:48:04.702Z,11.37
2018-06-10T13:50:32.817Z,11.23
2018-06-10T13:53:01.869Z,11.13
2018-06-10T13:55:29.136Z,11.40
2018-06-10T13:57:57.342Z,11.50
2018-06-10T14:00:26.137Z,11.00
2018-06-10T14:02:53.934Z,11.57
2018-06-10T14:05:21.951Z,11.57
2018-06-10T14:07:50.613Z,11.10
2018-06-10T14:10:18.117Z,11.67
2018-06-10T14:12:46.143Z,11.60
2018-06-10T14:15:13.506Z,12.20
2018-06-10T14:17:41.869Z,12.47
2018-06-10T14:20:09.973Z,12.37
2018-06-10T14:22:37.929Z,13.00
2018-06-10T14:25:05.544Z,11.40
2018-06-10T14:27:32.917Z,12.67
2018-06-10T14:30:00.258Z,12.00
2018-06-10T14:32:27.640Z,15.00
2018-06-10T14:34:55.012Z,12.80
2018-06-10T14:37:22.346Z,11.70
2018-06-10T14:39:49.664Z,11.23
2018-06-10T14:42:17.072Z,12.60
2018-06-10T14:44:44.262Z,12.37
2018-06-10T14:47:11.600Z,11.60
2018-06-10T14:49:38.965Z,12.20
2018-06-10T14:52:06.177Z,11.63
2018-06-10T14:54:34.169Z,11.50
2018-06-10T14:57:03.977Z,11.80
2018-06-10T14:59:32.569Z,13.10
2018-06-10T15:02:00.970Z,11.10
2018-06-10T15:04:29.011Z,10.40
2018-06-10T15:06:57.667Z,11.30
2018-06-10T15:09:26.140Z,11.53
2018-06-10T15:11:53.627Z,10.57
2018-06-10T15:14:21.193Z,10.20
2018-06-10T15:16:49.390Z,9.90
2018-06-10T15:19:17.667Z,11.23
2018-06-10T15:21:45.833Z,12.03
2018-06-10T15:24:14.469Z,11.77
2018-06-10T15:26:43.107Z,11.93
2018-06-10T15:29:10.412Z,12.10
2018-06-10T15:31:39.032Z,11.93
2018-06-10T15:34:07.028Z,12.30
2018-06-10T15:36:34.577Z,11.47
2018-06-10T15:39:01.978Z,13.20
2018-06-10T15:41:31.461Z,11.47
2018-06-10T15:43:59.732Z,12.87
2018-06-10T15:46:28.405Z,13.70
2018-06-10T15:48:57.013Z,12.03
2018-06-10T15:51:24.766Z,11.53
2018-06-10T15:53:52.066Z,12.30
2018-06-10T15:56:19.561Z,11.10
2018-06-10T15:58:47.841Z,14.97
2018-06-10T16:01:15.608Z,12.80
2018-06-10T16:03:44.124Z,17.00
2018-06-10T16:06:11.607Z,14.50
2018-06-10T16:08:40.746Z,11.83
2018-06-10T16:11:08.821Z,10.67
2018-06-10T16:13:37.999Z,11.40
2018-06-10T16:16:06.195Z,12.67
2018-06-10T16:18:33.443Z,12.73
2018-06-10T16:21:01.912Z,13.00
2018-06-10T16:23:29.550Z,12.00
2018-06-10T16:25:57.043Z,12.30
2018-06-10T16:28:25.859Z,13.27
2018-06-10T16:30:53.305Z,11.87
2018-06-10T16:33:20.831Z,12.00
2018-06-10T16:35:48.697Z,12.37
2018-06-10T16:38:16.898Z,12.17
2018-06-10T16:40:45.998Z,12.53
2018-06-10T16:43:15.519Z,11.80
2018-06-10T16:45:43.020Z,11.07
2018-06-10T16:48:10.461Z,13.83
2018-06-10T16:50:39.493Z,13.43
2018-06-10T16:53:06.876Z,12.90
2018-06-10T16:55:34.183Z,12.70
2018-06-10T16:58:03.403Z,13.27
2018-06-10T17:00:30.665Z,12.13
2018-06-10T17:02:58.000Z,14.50
2018-06-10T17:05:25.370Z,12.80
2018-06-10T17:07:52.977Z,12.70
2018-06-10T17:10:20.849Z,12.63
2018-06-10T17:12:48.150Z,12.50
2018-06-10T17:15:15.450Z,12.10
2018-06-10T17:17:42.940Z,12.87
2018-06-10T17:20:10.241Z,13.13
2018-06-10T17:22:37.558Z,12.70
2018-06-10T17:25:04.898Z,12.23
2018-06-10T17:27:33.159Z,12.80
2018-06-10T17:30:01.077Z,13.33
2018-06-10T17:32:29.405Z,12.57
2018-06-10T17:34:56.657Z,13.53
2018-06-10T17:37:23.953Z,12.60
2018-06-10T17:39:51.493Z,12.83
2018-06-10T17:42:18.814Z,14.37
2018-06-10T17:44:46.763Z,13.10
2018-06-10T17:47:14.560Z,13.80
2018-06-10T17:49:41.889Z,15.87
2018-06-10T17:52:09.392Z,13.80
2018-06-10T17:54:36.745Z,12.73
2018-06-10T17:57:04.121Z,14.00
2018-06-10T17:59:32.076Z,13.97
2018-06-10T18:01:59.320Z,13.53
2018-06-10T18:04:27.574Z,14.27
2018-06-10T18:06:54.754Z,15.27
2018-06-10T18:09:21.957Z,13.60
2018-06-10T18:11:49.277Z,13.83
2018-06-10T18:14:17.755Z,15.70
2018-06-10T18:16:45.025Z,15.33
2018-06-10T18:19:16.015Z,16.20
2018-06-10T18:21:43.329Z,15.37
2018-06-10T18:24:11.352Z,15.13
2018-06-10T18:26:39.297Z,15.07
2018-06-10T18:29:06.744Z,15.10
2018-06-10T18:31:34.906Z,14.47
2018-06-10T18:34:02.195Z,16.20
2018-06-10T18:36:29.709Z,14.93
2018-06-10T18:38:58.703Z,14.47
2018-06-10T18:41:26.726Z,14.53
2018-06-10T18:43:54.024Z,15.23
2018-06-10T18:46:21.906Z,14.27
2018-06-10T18:48:49.261Z,14.30
2018-06-10T18:51:17.279Z,14.47
2018-06-10T18:53:44.827Z,11.90
2018-06-10T18:56:12.535Z,13.10
2018-06-10T18:58:39.959Z,12.50
2018-06-10T19:01:08.037Z,12.33
2018-06-10T19:03:36.557Z,12.90
2018-06-10T19:06:04.325Z,12.90
2018-06-10T19:08:32.291Z,12.10
2018-06-10T19:11:00.276Z,13.77
2018-06-10T19:13:29.293Z,12.40
2018-06-10T19:15:59.935Z,12.10
2018-06-10T19:18:27.666Z,11.70
2018-06-10T19:20:55.145Z,12.83
2018-06-10T19:23:24.665Z,12.50
2018-06-10T19:25:53.972Z,12.30
2018-06-10T19:28:21.987Z,12.93
2018-06-10T19:30:50.056Z,11.50
2018-06-10T19:33:17.636Z,11.77
2018-06-10T19:35:45.805Z,11.77
2018-06-10T19:38:13.473Z,11.47
2018-06-10T19:40:41.626Z,11.70
2018-06-10T19:43:09.300Z,11.43
2018-06-10T19:45:39.682Z,12.40
2018-06-10T19:48:07.438Z,11.03
2018-06-10T19:50:34.722Z,11.30
2018-06-10T19:53:01.969Z,10.50
2018-06-10T19:55:29.328Z,11.57
2018-06-10T19:57:57.826Z,11.13
2018-06-10T20:00:25.154Z,13.30
2018-06-10T20:02:55.221Z,12.00
2018-06-10T20:05:23.075Z,12.90
2018-06-10T20:07:52.939Z,12.00
2018-06-10T20:10:21.256Z,11.37
2018-06-10T20:12:49.697Z,10.23
2018-06-10T20:15:17.068Z,11.47
2018-06-10T20:17:44.721Z,12.57
2018-06-10T20:20:12.390Z,10.43
2018-06-10T20:22:39.904Z,9.30
2018-06-10T20:25:07.556Z,9.33
2018-06-10T20:27:34.896Z,9.17
2018-06-10T20:30:03.237Z,9.80
2018-06-10T20:32:30.793Z,9.00
2018-06-10T20:34:58.597Z,9.80
2018-06-10T20:37:26.677Z,9.70
2018-06-10T20:39:53.876Z,10.40
2018-06-10T20:42:21.740Z,9.73
2018-06-10T20:44:50.017Z,9.77
2018-06-10T20:47:17.362Z,10.60
2018-06-10T20:49:45.563Z,10.20
2018-06-10T20:52:12.946Z,10.90
2018-06-10T20:54:40.367Z,10.53
2018-06-10T20:57:07.870Z,10.80
2018-06-10T20:59:35.133Z,10.40
2018-06-10T21:02:03.517Z,10.13
2018-06-10T21:04:31.369Z,9.90
2018-06-10T21:06:58.730Z,10.40
2018-06-10T21:09:26.040Z,10.07
2018-06-10T21:11:53.386Z,10.57
2018-06-10T21:14:20.675Z,9.80
2018-06-10T21:16:47.982Z,9.60
2018-06-10T21:19:15.277Z,9.30
2018-06-10T21:21:44.042Z,9.20
2018-06-10T21:24:11.627Z,9.03
2018-06-10T21:26:39.349Z,9.43
2018-06-10T21:29:10.100Z,9.67
2018-06-10T21:31:38.281Z,9.97
2018-06-10T21:34:05.728Z,10.17
2018-06-10T21:36:34.385Z,9.77
2018-06-10T21:39:03.123Z,9.10
2018-06-10T21:41:31.211Z,9.60
2018-06-10T21:43:58.436Z,9.43
2018-06-10T21:46:26.739Z,11.30
2018-06-10T21:48:54.464Z,10.90
2018-06-10T21:51:22.893Z,9.73
2018-06-10T21:53:51.386Z,9.50
2018-06-10T21:56:18.702Z,9.73
2018-06-10T21:58:46.537Z,9.73
2018-06-10T22:01:13.947Z,9.80
2018-06-10T22:03:42.605Z,9.43
2018-06-10T22:06:10.189Z,10.90
2018-06-10T22:08:37.647Z,10.07
2018-06-10T22:11:05.015Z,9.60
2018-06-10T22:13:32.384Z,10.13
2018-06-10T22:16:00.032Z,9.83
2018-06-10T22:18:27.487Z,10.63
2018-06-10T22:20:55.821Z,11.20
2018-06-10T22:23:23.279Z,10.50
2018-06-10T22:25:50.798Z,11.33
2018-06-10T22:28:18.849Z,11.13
2018-06-10T22:30:46.267Z,12.43
2018-06-10T22:33:13.711Z,14.13
2018-06-10T22:35:41.143Z,13.70
2018-06-10T22:38:08.476Z,14.50
2018-06-10T22:40:36.877Z,13.20
2018-06-10T22:43:04.913Z,14.73
2018-06-10T22:45:32.245Z,15.70
2018-06-10T22:47:59.527Z,15.10
2018-06-10T22:50:26.828Z,16.37
2018-06-10T22:53:03.938Z,16.47
2018-06-10T22:55:31.546Z,16.77
2018-06-10T22:57:58.912Z,15.83
2018-06-10T23:00:26.141Z,16.40
2018-06-10T23:02:53.649Z,17.47
2018-06-10T23:05:21.311Z,17.40
2018-06-10T23:07:48.662Z,16.83
2018-06-10T23:10:16.133Z,16.33
2018-06-10T23:12:44.353Z,16.50
2018-06-10T23:15:11.712Z,15.80
2018-06-10T23:17:39.818Z,18.47
2018-06-10T23:20:13.990Z,17.63
2018-06-10T23:22:41.364Z,18.67
2018-06-10T23:25:09.482Z,18.33
2018-06-10T23:27:38.194Z,17.30
2018-06-10T23:30:05.648Z,18.13
2018-06-10T23:32:33.958Z,19.17
2018-06-10T23:35:01.297Z,18.33
2018-06-10T23:37:29.106Z,17.80
2018-06-10T23:39:56.413Z,19.00
2018-06-10T23:42:23.765Z,20.03
2018-06-10T23:44:51.157Z,18.67
2018-06-10T23:47:18.322Z,18.30
2018-06-10T23:49:45.525Z,18.60
2018-06-10T23:52:18.894Z,19.70
2018-06-10T23:54:46.333Z,19.60
2018-06-10T23:57:13.649Z,19.83
2018-06-10T23:59:41.813Z,20.23
